createdAt,value
2018-12-15T00:00:12.843Z,1013.06
2018-12-15T00:01:12.830Z,1013.06
2018-12-15T00:02:12.818Z,1013.07
2018-12-15T00:03:12.835Z,1013.05
2018-12-15T00:04:12.795Z,1013.08
2018-12-15T00:05:12.787Z,1013.06
2018-12-15T00:06:12.773Z,1013.07
2018-12-15T00:07:12.762Z,1013.06
2018-12-15T00:08:12.751Z,1013.18
2018-12-15T00:09:12.762Z,1013.11
2018-12-15T00:10:12.729Z,1013.03
2018-12-15T00:11:12.716Z,1013.11
2018-12-15T00:12:12.706Z,1013.16
2018-12-15T00:13:12.695Z,1013.12
2018-12-15T00:14:12.701Z,1013.13
2018-12-15T00:15:12.672Z,1013.20
2018-12-15T00:16:12.671Z,1013.18
2018-12-15T00:17:12.650Z,1013.21
2018-12-15T00:18:12.642Z,1013.14
2018-12-15T00:19:12.662Z,1013.17
2018-12-15T00:20:12.616Z,1013.22
2018-12-15T00:21:12.606Z,1013.19
2018-12-15T00:22:12.600Z,1013.18
2018-12-15T00:23:12.584Z,1013.19
2018-12-15T00:24:12.575Z,1013.20
2018-12-15T00:25:12.579Z,1013.18
2018-12-15T00:26:12.549Z,1013.16
2018-12-15T00:27:12.542Z,1013.19
2018-12-15T00:28:12.529Z,1013.12
2018-12-15T00:29:12.515Z,1013.14
2018-12-15T00:30:12.525Z,1013.12
2018-12-15T00:31:12.495Z,1013.11
2018-12-15T00:32:12.484Z,1013.13
2018-12-15T00:33:12.472Z,1013.13
2018-12-15T00:34:12.463Z,1013.13
2018-12-15T00:35:12.464Z,1013.12
2018-12-15T00:36:12.437Z,1013.12
2018-12-15T00:37:12.428Z,1013.14
2018-12-15T00:38:12.416Z,1013.14
2018-12-15T00:39:12.408Z,1013.21
2018-12-15T00:40:12.422Z,1013.15
2018-12-15T00:41:12.383Z,1013.16
2018-12-15T00:42:12.371Z,1013.21
2018-12-15T00:43:12.360Z,1013.14
2018-12-15T00:44:12.349Z,1013.16
2018-12-15T00:45:12.338Z,1013.19
2018-12-15T00:46:12.345Z,1013.20
2018-12-15T00:47:13.904Z,1013.14
2018-12-15T00:48:12.307Z,1013.19
2018-12-15T00:49:12.296Z,1013.15
2018-12-15T00:50:12.283Z,1013.18
2018-12-15T00:51:12.302Z,1013.18
2018-12-15T00:52:12.267Z,1013.20
2018-12-15T00:53:12.250Z,1013.16
2018-12-15T00:54:12.239Z,1013.18
2018-12-15T00:55:12.229Z,1013.19
2018-12-15T00:56:12.220Z,1013.15
2018-12-15T00:57:12.226Z,1013.18
2018-12-15T00:58:12.193Z,1013.18
2018-12-15T00:59:12.184Z,1013.19
2018-12-15T01:00:12.179Z,1013.15
2018-12-15T01:01:12.161Z,1013.17
2018-12-15T01:02:12.170Z,1013.12
2018-12-15T01:03:12.141Z,1013.16
2018-12-15T01:04:12.129Z,1013.13
2018-12-15T01:05:12.115Z,1013.17
2018-12-15T01:06:12.105Z,1013.18
2018-12-15T01:07:12.123Z,1013.14
2018-12-15T01:08:12.084Z,1013.19
2018-12-15T01:09:12.072Z,1013.14
2018-12-15T01:10:12.060Z,1013.15
2018-12-15T01:11:12.050Z,1013.15
2018-12-15T01:12:12.044Z,1013.13
2018-12-15T01:13:12.045Z,1013.18
2018-12-15T01:14:12.016Z,1013.16
2018-12-15T01:15:12.009Z,1013.18
2018-12-15T01:16:11.995Z,1013.17
2018-12-15T01:17:11.985Z,1013.14
2018-12-15T01:18:11.991Z,1013.17
2018-12-15T01:19:11.961Z,1013.14
2018-12-15T01:20:11.953Z,1013.15
2018-12-15T01:21:11.941Z,1013.20
2018-12-15T01:22:11.928Z,1013.21
2018-12-15T01:23:11.948Z,1013.20
2018-12-15T01:24:11.906Z,1013.19
2018-12-15T01:25:11.895Z,1013.22
2018-12-15T01:26:11.885Z,1013.24
2018-12-15T01:27:11.874Z,1013.27
2018-12-15T01:28:11.871Z,1013.26
2018-12-15T01:29:11.870Z,1013.31
2018-12-15T01:30:11.838Z,1013.27
2018-12-15T01:31:11.829Z,1013.22
2018-12-15T01:32:11.820Z,1013.30
2018-12-15T01:33:11.808Z,1013.29
2018-12-15T01:34:11.818Z,1013.31
2018-12-15T01:35:11.782Z,1013.31
2018-12-15T01:36:11.772Z,1013.30
2018-12-15T01:37:11.762Z,1013.30
2018-12-15T01:38:11.755Z,1013.29
2018-12-15T01:39:11.769Z,1013.32
2018-12-15T01:40:11.730Z,1013.41
2018-12-15T01:41:11.717Z,1013.36
2018-12-15T01:42:11.707Z,1013.33
2018-12-15T01:43:11.700Z,1013.32
2018-12-15T01:44:11.683Z,1013.38
2018-12-15T01:45:11.696Z,1013.33
2018-12-15T01:46:11.663Z,1013.34
2018-12-15T01:47:11.652Z,1013.38
2018-12-15T01:48:11.639Z,1013.35
2018-12-15T01:49:11.628Z,1013.33
2018-12-15T01:50:11.632Z,1013.35
2018-12-15T01:51:11.607Z,1013.36
2018-12-15T01:52:11.598Z,1013.35
2018-12-15T01:53:11.584Z,1013.34
2018-12-15T01:54:11.574Z,1013.35
2018-12-15T01:55:11.595Z,1013.35
2018-12-15T01:56:11.554Z,1013.37
2018-12-15T01:57:11.542Z,1013.41
2018-12-15T01:58:11.530Z,1013.43
2018-12-15T01:59:11.522Z,1013.46
2018-12-15T02:00:11.510Z,1013.42
2018-12-15T02:01:11.516Z,1013.37
2018-12-15T02:02:11.536Z,1013.42
2018-12-15T02:03:11.474Z,1013.40
2018-12-15T02:04:11.468Z,1013.41
2018-12-15T02:05:11.453Z,1013.47
2018-12-15T02:06:11.465Z,1013.43
2018-12-15T02:07:11.431Z,1013.43
2018-12-15T02:08:11.419Z,1013.44
2018-12-15T02:09:11.408Z,1013.43
2018-12-15T02:10:11.398Z,1013.47
2018-12-15T02:11:11.416Z,1013.41
2018-12-15T02:12:11.379Z,1013.50
2018-12-15T02:13:11.366Z,1013.44
2018-12-15T02:14:11.352Z,1013.44
2018-12-15T02:15:11.342Z,1013.44
2018-12-15T02:16:11.332Z,1013.48
2018-12-15T02:17:11.339Z,1013.51
2018-12-15T02:18:11.311Z,1013.49
2018-12-15T02:19:11.297Z,1013.53
2018-12-15T02:20:11.285Z,1013.48
2018-12-15T02:21:11.285Z,1013.50
2018-12-15T02:22:11.283Z,1013.53
2018-12-15T02:23:11.254Z,1013.55
2018-12-15T02:24:11.242Z,1013.51
2018-12-15T02:25:11.231Z,1013.53
2018-12-15T02:26:11.219Z,1013.53
2018-12-15T02:27:11.238Z,1013.59
2018-12-15T02:28:11.201Z,1013.55
2018-12-15T02:29:11.188Z,1013.54
2018-12-15T02:30:11.178Z,1013.58
2018-12-15T02:31:11.165Z,1013.55
2018-12-15T02:32:11.154Z,1013.57
2018-12-15T02:33:11.161Z,1013.55
2018-12-15T02:34:11.134Z,1013.56
2018-12-15T02:35:11.120Z,1013.59
2018-12-15T02:36:11.112Z,1013.57
2018-12-15T02:37:11.099Z,1013.60
2018-12-15T02:38:11.111Z,1013.54
2018-12-15T02:39:11.077Z,1013.53
2018-12-15T02:40:11.066Z,1013.55
2018-12-15T02:41:11.053Z,1013.57
2018-12-15T02:42:11.044Z,1013.55
2018-12-15T02:43:11.057Z,1013.52
2018-12-15T02:44:11.019Z,1013.52
2018-12-15T02:45:11.009Z,1013.53
2018-12-15T02:46:10.997Z,1013.52
2018-12-15T02:47:10.987Z,1013.53
2018-12-15T02:48:10.975Z,1013.56
2018-12-15T02:49:10.981Z,1013.51
2018-12-15T02:50:11.958Z,1013.48
2018-12-15T02:51:10.944Z,1013.56
2018-12-15T02:52:10.930Z,1013.50
2018-12-15T02:53:10.921Z,1013.53
2018-12-15T02:54:10.927Z,1013.50
2018-12-15T02:55:10.898Z,1013.49
2018-12-15T02:56:10.885Z,1013.52
2018-12-15T02:57:10.877Z,1013.54
2018-12-15T02:58:10.868Z,1013.52
2018-12-15T02:59:10.883Z,1013.51
2018-12-15T03:00:10.843Z,1013.51
2018-12-15T03:01:10.833Z,1013.56
2018-12-15T03:02:10.820Z,1013.54
2018-12-15T03:03:10.810Z,1013.51
2018-12-15T03:04:10.799Z,1013.46
2018-12-15T03:05:10.801Z,1013.54
2018-12-15T03:06:10.777Z,1013.51
2018-12-15T03:07:10.772Z,1013.56
2018-12-15T03:08:10.771Z,1013.48
2018-12-15T03:09:10.745Z,1013.55
2018-12-15T03:10:10.733Z,1013.55
2018-12-15T03:11:10.718Z,1013.57
2018-12-15T03:12:10.708Z,1013.58
2018-12-15T03:13:10.732Z,1013.58
2018-12-15T03:14:10.687Z,1013.54
2018-12-15T03:15:10.678Z,1013.60
2018-12-15T03:16:10.666Z,1013.61
2018-12-15T03:17:10.655Z,1013.52
2018-12-15T03:18:10.642Z,1013.58
2018-12-15T03:19:10.660Z,1013.61
2018-12-15T03:20:10.620Z,1013.58
2018-12-15T03:21:10.617Z,1013.58
2018-12-15T03:22:10.601Z,1013.63
2018-12-15T03:23:10.586Z,1013.58
2018-12-15T03:24:10.575Z,1013.54
2018-12-15T03:25:10.595Z,1013.58
2018-12-15T03:26:10.552Z,1013.55
2018-12-15T03:27:10.544Z,1013.56
2018-12-15T03:28:10.531Z,1013.60
2018-12-15T03:29:10.521Z,1013.63
2018-12-15T03:30:10.520Z,1013.64
2018-12-15T03:31:10.518Z,1013.62
2018-12-15T03:32:10.496Z,1013.59
2018-12-15T03:33:10.476Z,1013.61
2018-12-15T03:34:10.464Z,1013.66
2018-12-15T03:35:10.452Z,1013.68
2018-12-15T03:36:10.456Z,1013.57
2018-12-15T03:37:10.430Z,1013.61
2018-12-15T03:38:10.420Z,1013.58
2018-12-15T03:39:10.407Z,1013.60
2018-12-15T03:40:10.399Z,1013.59
2018-12-15T03:41:10.415Z,1013.61
2018-12-15T03:42:10.377Z,1013.62
2018-12-15T03:43:10.366Z,1013.65
2018-12-15T03:44:10.353Z,1013.61
2018-12-15T03:45:10.342Z,1013.62
2018-12-15T03:46:10.332Z,1013.58
2018-12-15T03:47:10.337Z,1013.61
2018-12-15T03:48:10.307Z,1013.62
2018-12-15T03:49:10.298Z,1013.62
2018-12-15T03:50:10.289Z,1013.60
2018-12-15T03:51:10.278Z,1013.55
2018-12-15T03:52:10.285Z,1013.55
2018-12-15T03:53:10.252Z,1013.57
2018-12-15T03:54:10.242Z,1013.59
2018-12-15T03:55:10.231Z,1013.52
2018-12-15T03:56:10.229Z,1013.53
2018-12-15T03:57:10.238Z,1013.49
2018-12-15T03:58:10.201Z,1013.51
2018-12-15T03:59:10.187Z,1013.51
2018-12-15T04:00:10.176Z,1013.60
2018-12-15T04:01:10.164Z,1013.51
2018-12-15T04:02:10.153Z,1013.51
2018-12-15T04:03:10.160Z,1013.55
2018-12-15T04:04:10.134Z,1013.57
2018-12-15T04:05:10.119Z,1013.54
2018-12-15T04:06:10.112Z,1013.55
2018-12-15T04:07:10.098Z,1013.55
2018-12-15T04:08:10.105Z,1013.59
2018-12-15T04:09:10.077Z,1013.58
2018-12-15T04:10:10.067Z,1013.62
2018-12-15T04:11:10.056Z,1013.62
2018-12-15T04:12:10.045Z,1013.60
2018-12-15T04:13:10.059Z,1013.59
2018-12-15T04:14:10.025Z,1013.64
2018-12-15T04:15:10.010Z,1013.66
2018-12-15T04:16:10.001Z,1013.65
2018-12-15T04:17:09.988Z,1013.64
2018-12-15T04:18:09.977Z,1013.67
2018-12-15T04:19:09.982Z,1013.63
2018-12-15T04:20:09.955Z,1013.66
2018-12-15T04:21:09.945Z,1013.64
2018-12-15T04:22:09.932Z,1013.70
2018-12-15T04:23:09.920Z,1013.70
2018-12-15T04:24:09.927Z,1013.68
2018-12-15T04:25:09.899Z,1013.72
2018-12-15T04:26:09.999Z,1013.74
2018-12-15T04:27:09.875Z,1013.73
2018-12-15T04:28:09.872Z,1013.73
2018-12-15T04:29:09.869Z,1013.73
2018-12-15T04:30:09.842Z,1013.73
2018-12-15T04:31:09.831Z,1013.78
2018-12-15T04:32:09.822Z,1013.72
2018-12-15T04:33:09.810Z,1013.72
2018-12-15T04:34:09.827Z,1013.78
2018-12-15T04:35:09.787Z,1013.80
2018-12-15T04:36:09.775Z,1013.80
2018-12-15T04:37:09.763Z,1013.80
2018-12-15T04:38:09.752Z,1013.82
2018-12-15T04:39:09.748Z,1013.83
2018-12-15T04:40:09.748Z,1013.86
2018-12-15T04:41:09.722Z,1013.81
2018-12-15T04:42:09.709Z,1013.82
2018-12-15T04:43:09.697Z,1013.83
2018-12-15T04:44:09.686Z,1013.87
2018-12-15T04:45:09.684Z,1013.85
2018-12-15T04:46:09.697Z,1013.88
2018-12-15T04:47:09.654Z,1013.86
2018-12-15T04:48:11.310Z,1013.86
2018-12-15T04:49:09.633Z,1013.90
2018-12-15T04:50:09.620Z,1013.90
2018-12-15T04:51:09.607Z,1013.85
2018-12-15T04:52:09.626Z,1013.89
2018-12-15T04:53:09.589Z,1013.92
2018-12-15T04:54:09.577Z,1013.87
2018-12-15T04:55:09.566Z,1013.92
2018-12-15T04:56:09.562Z,1013.89
2018-12-15T04:57:09.545Z,1013.93
2018-12-15T04:58:09.567Z,1013.86
2018-12-15T04:59:09.521Z,1013.90
2018-12-15T05:00:09.512Z,1013.87
2018-12-15T05:01:09.499Z,1013.89
2018-12-15T05:02:09.490Z,1013.87
2018-12-15T05:03:09.477Z,1013.84
2018-12-15T05:04:09.495Z,1013.85
2018-12-15T05:05:09.455Z,1013.85
2018-12-15T05:06:09.453Z,1013.81
2018-12-15T05:07:09.432Z,1013.90
2018-12-15T05:08:09.421Z,1013.87
2018-12-15T05:09:09.409Z,1013.87
2018-12-15T05:10:09.414Z,1013.89
2018-12-15T05:11:09.386Z,1013.84
2018-12-15T05:12:09.393Z,1013.87
2018-12-15T05:13:09.365Z,1013.84
2018-12-15T05:14:09.355Z,1013.87
2018-12-15T05:15:09.362Z,1013.92
2018-12-15T05:16:09.332Z,1013.86
2018-12-15T05:17:09.321Z,1013.85
2018-12-15T05:18:09.309Z,1013.85
2018-12-15T05:19:09.303Z,1013.90
2018-12-15T05:20:09.306Z,1013.84
2018-12-15T05:21:09.277Z,1013.83
2018-12-15T05:22:09.264Z,1013.89
2018-12-15T05:23:09.253Z,1013.85
2018-12-15T05:24:09.243Z,1013.83
2018-12-15T05:25:09.259Z,1013.91
2018-12-15T05:26:09.221Z,1013.88
2018-12-15T05:27:09.210Z,1013.89
2018-12-15T05:28:09.199Z,1013.93
2018-12-15T05:29:09.189Z,1013.93
2018-12-15T05:30:09.176Z,1013.97
2018-12-15T05:31:09.184Z,1013.96
2018-12-15T05:32:09.156Z,1013.96
2018-12-15T05:33:09.144Z,1013.95
2018-12-15T05:34:09.135Z,1014.00
2018-12-15T05:35:09.122Z,1013.99
2018-12-15T05:36:09.126Z,1013.99
2018-12-15T05:37:09.100Z,1013.96
2018-12-15T05:38:09.088Z,1014.06
2018-12-15T05:39:09.078Z,1014.07
2018-12-15T05:40:09.067Z,1014.07
2018-12-15T05:41:09.071Z,1014.07
2018-12-15T05:42:09.058Z,1014.08
2018-12-15T05:43:09.033Z,1014.11
2018-12-15T05:44:09.022Z,1014.08
2018-12-15T05:45:09.009Z,1014.09
2018-12-15T05:46:09.029Z,1014.10
2018-12-15T05:47:08.989Z,1014.06
2018-12-15T05:48:08.977Z,1014.08
2018-12-15T05:49:08.966Z,1014.12
2018-12-15T05:50:08.954Z,1014.11
2018-12-15T05:51:08.943Z,1014.07
2018-12-15T05:52:08.949Z,1014.10
2018-12-15T05:53:08.922Z,1014.09
2018-12-15T05:54:08.913Z,1014.08
2018-12-15T05:55:08.899Z,1014.14
2018-12-15T05:56:08.891Z,1014.17
2018-12-15T05:57:08.898Z,1014.15
2018-12-15T05:58:08.867Z,1014.12
2018-12-15T05:59:08.858Z,1014.11
2018-12-15T06:00:08.845Z,1014.16
2018-12-15T06:01:08.833Z,1014.16
2018-12-15T06:02:08.838Z,1014.15
2018-12-15T06:03:08.811Z,1014.17
2018-12-15T06:04:08.801Z,1014.13
2018-12-15T06:05:08.794Z,1014.10
2018-12-15T06:06:08.779Z,1014.13
2018-12-15T06:07:08.783Z,1014.17
2018-12-15T06:08:08.758Z,1014.21
2018-12-15T06:09:08.745Z,1014.20
2018-12-15T06:10:08.734Z,1014.24
2018-12-15T06:11:08.727Z,1014.26
2018-12-15T06:12:08.732Z,1014.29
2018-12-15T06:13:08.700Z,1014.26
2018-12-15T06:14:08.689Z,1014.29
2018-12-15T06:15:08.680Z,1014.31
2018-12-15T06:16:08.668Z,1014.28
2018-12-15T06:17:08.678Z,1014.27
2018-12-15T06:18:08.646Z,1014.37
2018-12-15T06:19:08.635Z,1014.29
2018-12-15T06:20:08.622Z,1014.31
2018-12-15T06:21:08.611Z,1014.30
2018-12-15T06:22:08.619Z,1014.29
2018-12-15T06:23:08.589Z,1014.29
2018-12-15T06:24:08.578Z,1014.36
2018-12-15T06:25:08.584Z,1014.36
2018-12-15T06:26:08.554Z,1014.35
2018-12-15T06:27:08.561Z,1014.36
2018-12-15T06:28:08.536Z,1014.37
2018-12-15T06:29:08.531Z,1014.40
2018-12-15T06:30:08.514Z,1014.41
2018-12-15T06:31:08.501Z,1014.39
2018-12-15T06:32:08.506Z,1014.41
2018-12-15T06:33:08.479Z,1014.38
2018-12-15T06:34:08.477Z,1014.43
2018-12-15T06:35:08.461Z,1014.39
2018-12-15T06:36:08.446Z,1014.38
2018-12-15T06:37:08.452Z,1014.37
2018-12-15T06:38:08.423Z,1014.35
2018-12-15T06:39:08.415Z,1014.35
2018-12-15T06:40:08.405Z,1014.36
2018-12-15T06:41:08.390Z,1014.35
2018-12-15T06:42:08.418Z,1014.38
2018-12-15T06:43:08.368Z,1014.40
2018-12-15T06:44:08.356Z,1014.37
2018-12-15T06:45:08.347Z,1014.39
2018-12-15T06:46:08.335Z,1014.39
2018-12-15T06:47:08.324Z,1014.37
2018-12-15T06:48:08.342Z,1014.36
2018-12-15T06:49:08.302Z,1014.39
2018-12-15T06:50:08.290Z,1014.45
2018-12-15T06:51:08.279Z,1014.44
2018-12-15T06:52:08.268Z,1014.40
2018-12-15T06:53:08.257Z,1014.41
2018-12-15T06:54:08.274Z,1014.40
2018-12-15T06:55:08.233Z,1014.38
2018-12-15T06:56:08.224Z,1014.43
2018-12-15T06:57:08.212Z,1014.37
2018-12-15T06:58:08.201Z,1014.40
2018-12-15T06:59:08.190Z,1014.41
2018-12-15T07:00:08.212Z,1014.39
2018-12-15T07:01:08.167Z,1014.36
2018-12-15T07:02:08.159Z,1014.38
2018-12-15T07:03:08.145Z,1014.44
2018-12-15T07:04:08.135Z,1014.41
2018-12-15T07:05:08.124Z,1014.44
2018-12-15T07:06:08.154Z,1014.37
2018-12-15T07:07:08.101Z,1014.40
2018-12-15T07:08:08.109Z,1014.48
2018-12-15T07:09:08.077Z,1014.37
2018-12-15T07:10:08.071Z,1014.44
2018-12-15T07:11:08.058Z,1014.43
2018-12-15T07:12:08.071Z,1014.45
2018-12-15T07:13:08.034Z,1014.48
2018-12-15T07:14:08.022Z,1014.48
2018-12-15T07:15:08.014Z,1014.54
2018-12-15T07:16:08.003Z,1014.47
2018-12-15T07:17:07.989Z,1014.47
2018-12-15T07:18:08.009Z,1014.49
2018-12-15T07:19:07.967Z,1014.50
2018-12-15T07:20:07.957Z,1014.48
2018-12-15T07:21:07.944Z,1014.51
2018-12-15T07:22:07.936Z,1014.50
2018-12-15T07:23:07.924Z,1014.48
2018-12-15T07:24:07.941Z,1014.53
2018-12-15T07:25:07.903Z,1014.54
2018-12-15T07:26:07.894Z,1014.49
2018-12-15T07:27:07.880Z,1014.49
2018-12-15T07:28:07.868Z,1014.52
2018-12-15T07:29:07.857Z,1014.50
2018-12-15T07:30:07.874Z,1014.50
2018-12-15T07:31:07.838Z,1014.54
2018-12-15T07:32:07.822Z,1014.53
2018-12-15T07:33:07.813Z,1014.56
2018-12-15T07:34:07.799Z,1014.55
2018-12-15T07:35:07.789Z,1014.54
2018-12-15T07:36:07.800Z,1014.54
2018-12-15T07:37:07.784Z,1014.53
2018-12-15T07:38:07.758Z,1014.58
2018-12-15T07:39:07.746Z,1014.52
2018-12-15T07:40:07.734Z,1014.54
2018-12-15T07:41:07.737Z,1014.56
2018-12-15T07:42:07.711Z,1014.56
2018-12-15T07:43:07.703Z,1014.49
2018-12-15T07:44:07.693Z,1014.54
2018-12-15T07:45:07.676Z,1014.54
2018-12-15T07:46:07.684Z,1014.51
2018-12-15T07:47:07.654Z,1014.54
2018-12-15T07:48:07.644Z,1014.52
2018-12-15T07:49:07.632Z,1014.56
2018-12-15T07:50:07.621Z,1014.57
2018-12-15T07:51:07.624Z,1014.53
2018-12-15T07:52:07.600Z,1014.51
2018-12-15T07:53:07.591Z,1014.51
2018-12-15T07:54:07.576Z,1014.52
2018-12-15T07:55:07.582Z,1014.50
2018-12-15T07:56:07.554Z,1014.51
2018-12-15T07:57:07.546Z,1014.53
2018-12-15T07:58:07.532Z,1014.52
2018-12-15T07:59:07.520Z,1014.50
2018-12-15T08:00:07.526Z,1014.53
2018-12-15T08:01:07.499Z,1014.50
2018-12-15T08:02:07.497Z,1014.51
2018-12-15T08:03:07.477Z,1014.52
2018-12-15T08:04:07.467Z,1014.46
2018-12-15T08:05:07.472Z,1014.45
2018-12-15T08:06:07.444Z,1014.50
2018-12-15T08:07:07.434Z,1014.54
2018-12-15T08:08:07.423Z,1014.46
2018-12-15T08:09:07.410Z,1014.48
2018-12-15T08:10:07.421Z,1014.46
2018-12-15T08:11:07.390Z,1014.44
2018-12-15T08:12:07.425Z,1014.44
2018-12-15T08:13:07.367Z,1014.43
2018-12-15T08:14:07.360Z,1014.39
2018-12-15T08:15:07.374Z,1014.44
2018-12-15T08:16:07.339Z,1014.40
2018-12-15T08:17:07.322Z,1014.43
2018-12-15T08:18:07.362Z,1014.43
2018-12-15T08:19:07.304Z,1014.40
2018-12-15T08:20:07.289Z,1014.44
2018-12-15T08:21:07.296Z,1014.44
2018-12-15T08:22:07.271Z,1014.46
2018-12-15T08:23:07.257Z,1014.46
2018-12-15T08:24:07.245Z,1014.44
2018-12-15T08:25:07.233Z,1014.46
2018-12-15T08:26:07.238Z,1014.46
2018-12-15T08:27:07.220Z,1014.46
2018-12-15T08:28:07.200Z,1014.48
2018-12-15T08:29:07.192Z,1014.47
2018-12-15T08:30:07.178Z,1014.53
2018-12-15T08:31:07.183Z,1014.49
2018-12-15T08:32:07.156Z,1014.49
2018-12-15T08:33:07.145Z,1014.49
2018-12-15T08:34:07.132Z,1014.54
2018-12-15T08:35:07.130Z,1014.56
2018-12-15T08:36:07.130Z,1014.55
2018-12-15T08:37:07.100Z,1014.60
2018-12-15T08:38:07.090Z,1014.60
2018-12-15T08:39:07.079Z,1014.61
2018-12-15T08:40:07.071Z,1014.62
2018-12-15T08:41:07.080Z,1014.65
2018-12-15T08:42:07.046Z,1014.65
2018-12-15T08:43:07.038Z,1014.67
2018-12-15T08:44:07.024Z,1014.64
2018-12-15T08:45:07.057Z,1014.66
2018-12-15T08:46:07.019Z,1014.67
2018-12-15T08:47:06.994Z,1014.66
2018-12-15T08:48:06.980Z,1014.67
2018-12-15T08:49:06.970Z,1014.64
2018-12-15T08:50:06.960Z,1014.67
2018-12-15T08:51:06.974Z,1014.74
2018-12-15T08:52:06.934Z,1014.71
2018-12-15T08:53:06.924Z,1014.68
2018-12-15T08:54:14.084Z,1014.67
2018-12-15T08:55:07.016Z,1014.68
2018-12-15T08:56:06.896Z,1014.68
2018-12-15T08:57:06.909Z,1014.68
2018-12-15T08:58:06.867Z,1014.66
2018-12-15T08:59:06.857Z,1014.67
2018-12-15T09:00:06.844Z,1014.64
2018-12-15T09:01:06.836Z,1014.63
2018-12-15T09:02:06.825Z,1014.61
2018-12-15T09:03:06.842Z,1014.62
2018-12-15T09:04:06.799Z,1014.63
2018-12-15T09:05:06.788Z,1014.67
2018-12-15T09:06:06.777Z,1014.63
2018-12-15T09:07:06.766Z,1014.62
2018-12-15T09:08:06.756Z,1014.60
2018-12-15T09:09:06.773Z,1014.66
2018-12-15T09:10:06.744Z,1014.65
2018-12-15T09:11:06.723Z,1014.62
2018-12-15T09:12:06.712Z,1014.66
2018-12-15T09:13:06.700Z,1014.67
2018-12-15T09:14:06.689Z,1014.68
2018-12-15T09:15:06.710Z,1014.63
2018-12-15T09:16:06.671Z,1014.65
2018-12-15T09:17:06.657Z,1014.68
2018-12-15T09:18:06.649Z,1014.67
2018-12-15T09:19:11.207Z,1014.68
2018-12-15T09:20:06.623Z,1014.66
2018-12-15T09:21:06.635Z,1014.62
2018-12-15T09:22:11.556Z,1014.59
2018-12-15T09:23:07.589Z,1014.63
2018-12-15T09:24:06.577Z,1014.67
2018-12-15T09:25:06.567Z,1014.65
2018-12-15T09:26:06.584Z,1014.65
2018-12-15T09:27:06.545Z,1014.66
2018-12-15T09:28:06.536Z,1014.67
2018-12-15T09:29:06.525Z,1014.66
2018-12-15T09:30:06.513Z,1014.62
2018-12-15T09:31:06.501Z,1014.64
2018-12-15T09:32:06.504Z,1014.66
2018-12-15T09:33:06.490Z,1014.63
2018-12-15T09:34:06.468Z,1014.64
2018-12-15T09:35:06.458Z,1014.63
2018-12-15T09:36:06.444Z,1014.64
2018-12-15T09:37:06.450Z,1014.63
2018-12-15T09:38:06.425Z,1014.61
2018-12-15T09:39:06.411Z,1014.62
2018-12-15T09:40:06.398Z,1014.61
2018-12-15T09:41:06.401Z,1014.61
2018-12-15T09:42:06.403Z,1014.59
2018-12-15T09:43:06.370Z,1014.59
2018-12-15T09:44:07.464Z,1014.58
2018-12-15T09:45:06.346Z,1014.61
2018-12-15T09:46:06.362Z,1014.61
2018-12-15T09:47:06.371Z,1014.65
2018-12-15T09:48:06.319Z,1014.62
2018-12-15T09:49:06.304Z,1014.66
2018-12-15T09:50:06.291Z,1014.60
2018-12-15T09:51:06.288Z,1014.67
2018-12-15T09:52:06.272Z,1014.63
2018-12-15T09:53:06.289Z,1014.55
2018-12-15T09:54:06.247Z,1014.55
2018-12-15T09:55:06.235Z,1014.53
2018-12-15T09:56:06.224Z,1014.57
2018-12-15T09:57:06.212Z,1014.55
2018-12-15T09:58:06.200Z,1014.48
2018-12-15T09:59:06.206Z,1014.49
2018-12-15T10:00:06.179Z,1014.50
2018-12-15T10:01:06.167Z,1014.47
2018-12-15T10:02:06.155Z,1014.49
2018-12-15T10:03:06.147Z,1014.47
2018-12-15T10:04:06.151Z,1014.46
2018-12-15T10:05:06.125Z,1014.47
2018-12-15T10:06:06.113Z,1014.46
2018-12-15T10:07:06.101Z,1014.46
2018-12-15T10:08:06.093Z,1014.46
2018-12-15T10:09:06.095Z,1014.47
2018-12-15T10:10:06.068Z,1014.42
2018-12-15T10:11:06.057Z,1014.39
2018-12-15T10:12:06.048Z,1014.39
2018-12-15T10:13:06.035Z,1014.44
2018-12-15T10:14:06.040Z,1014.35
2018-12-15T10:15:06.012Z,1014.37
2018-12-15T10:16:06.001Z,1014.36
2018-12-15T10:17:05.993Z,1014.34
2018-12-15T10:18:05.979Z,1014.30
2018-12-15T10:19:05.995Z,1014.32
2018-12-15T10:20:05.956Z,1014.31
2018-12-15T10:21:05.946Z,1014.22
2018-12-15T10:22:05.943Z,1014.24
2018-12-15T10:23:06.421Z,1014.23
2018-12-15T10:24:05.934Z,1014.18
2018-12-15T10:25:05.901Z,1014.23
2018-12-15T10:26:05.901Z,1014.22
2018-12-15T10:27:05.880Z,1014.22
2018-12-15T10:28:05.870Z,1014.21
2018-12-15T10:29:05.876Z,1014.20
2018-12-15T10:30:05.844Z,1014.23
2018-12-15T10:31:05.836Z,1014.19
2018-12-15T10:32:05.823Z,1014.11
2018-12-15T10:33:05.817Z,1014.12
2018-12-15T10:34:05.828Z,1014.12
2018-12-15T10:35:05.789Z,1014.11
2018-12-15T10:36:05.779Z,1014.15
2018-12-15T10:37:05.772Z,1014.09
2018-12-15T10:38:05.759Z,1014.14
2018-12-15T10:39:05.745Z,1014.12
2018-12-15T10:40:05.752Z,1014.15
2018-12-15T10:41:05.722Z,1014.13
2018-12-15T10:42:05.712Z,1014.10
2018-12-15T10:43:05.709Z,1014.13
2018-12-15T10:44:05.691Z,1014.06
2018-12-15T10:45:05.699Z,1014.04
2018-12-15T10:46:05.667Z,1014.03
2018-12-15T10:47:05.657Z,1014.06
2018-12-15T10:48:05.646Z,1014.01
2018-12-15T10:49:05.640Z,1013.95
2018-12-15T10:50:05.653Z,1014.00
2018-12-15T10:51:05.613Z,1013.98
2018-12-15T10:52:05.604Z,1013.97
2018-12-15T10:53:05.590Z,1013.98
2018-12-15T10:54:05.579Z,1013.96
2018-12-15T10:55:05.570Z,1013.99
2018-12-15T10:56:05.577Z,1013.99
2018-12-15T10:57:05.548Z,1014.00
2018-12-15T10:58:05.536Z,1013.99
2018-12-15T10:59:05.523Z,1013.96
2018-12-15T11:00:05.513Z,1013.95
2018-12-15T11:01:05.521Z,1013.99
2018-12-15T11:02:05.492Z,1014.00
2018-12-15T11:03:05.480Z,1014.00
2018-12-15T11:04:05.472Z,1014.00
2018-12-15T11:05:05.458Z,1013.98
2018-12-15T11:06:05.464Z,1013.97
2018-12-15T11:07:05.438Z,1013.98
2018-12-15T11:08:05.447Z,1014.01
2018-12-15T11:09:05.413Z,1013.96
2018-12-15T11:10:05.404Z,1013.94
2018-12-15T11:11:05.423Z,1013.95
2018-12-15T11:12:05.380Z,1013.93
2018-12-15T11:13:05.369Z,1013.92
2018-12-15T11:14:05.360Z,1013.88
2018-12-15T11:15:05.353Z,1013.89
2018-12-15T11:16:05.334Z,1013.91
2018-12-15T11:17:05.346Z,1013.85
2018-12-15T11:18:05.315Z,1013.83
2018-12-15T11:19:05.304Z,1013.81
2018-12-15T11:20:05.291Z,1013.83
2018-12-15T11:21:05.282Z,1013.84
2018-12-15T11:22:05.290Z,1013.83
2018-12-15T11:23:05.258Z,1013.86
2018-12-15T11:24:05.246Z,1013.90
2018-12-15T11:25:05.235Z,1013.83
2018-12-15T11:26:05.235Z,1013.74
2018-12-15T11:27:05.235Z,1013.80
2018-12-15T11:28:05.205Z,1013.78
2018-12-15T11:29:05.192Z,1013.79
2018-12-15T11:30:05.180Z,1013.76
2018-12-15T11:31:05.175Z,1013.75
2018-12-15T11:32:05.179Z,1013.78
2018-12-15T11:33:05.149Z,1013.79
2018-12-15T11:34:05.157Z,1013.73
2018-12-15T11:35:05.124Z,1013.74
2018-12-15T11:36:05.114Z,1013.77
2018-12-15T11:37:05.119Z,1013.74
2018-12-15T11:38:05.092Z,1013.74
2018-12-15T11:39:05.081Z,1013.73
2018-12-15T11:40:05.070Z,1013.70
2018-12-15T11:41:05.057Z,1013.77
2018-12-15T11:42:05.062Z,1013.67
2018-12-15T11:43:05.040Z,1013.69
2018-12-15T11:44:05.026Z,1013.67
2018-12-15T11:45:05.014Z,1013.65
2018-12-15T11:46:05.003Z,1013.69
2018-12-15T11:47:05.009Z,1013.67
2018-12-15T11:48:04.980Z,1013.62
2018-12-15T11:49:04.970Z,1013.61
2018-12-15T11:50:04.960Z,1013.64
2018-12-15T11:51:04.950Z,1013.62
2018-12-15T11:52:04.956Z,1013.60
2018-12-15T11:53:04.926Z,1013.63
2018-12-15T11:54:04.913Z,1013.64
2018-12-15T11:55:04.902Z,1013.61
2018-12-15T11:56:04.891Z,1013.66
2018-12-15T11:57:04.927Z,1013.62
2018-12-15T11:58:04.870Z,1013.60
2018-12-15T11:59:04.861Z,1013.60
2018-12-15T12:00:04.848Z,1013.59
2018-12-15T12:01:04.839Z,1013.61
2018-12-15T12:02:04.850Z,1013.56
2018-12-15T12:03:04.814Z,1013.61
2018-12-15T12:04:04.802Z,1013.53
2018-12-15T12:05:04.851Z,1013.48